sensor_id;sensor_type;location;lat;lon;timestamp;temperature;humidity
22562;DHT22;11447;50.562;8.504;2022-08-25T00:01:28;23.70;51.70
22562;DHT22;11447;50.562;8.504;2022-08-25T00:03:58;23.70;51.90
22562;DHT22;11447;50.562;8.504;2022-08-25T00:06:25;23.70;52.40
22562;DHT22;11447;50.562;8.504;2022-08-25T00:08:54;23.70;52.50
22562;DHT22;11447;50.562;8.504;2022-08-25T00:11:25;23.60;52.30
22562;DHT22;11447;50.562;8.504;2022-08-25T00:14:00;23.60;52.50
22562;DHT22;11447;50.562;8.504;2022-08-25T00:16:27;23.60;52.40
22562;DHT22;11447;50.562;8.504;2022-08-25T00:18:57;23.50;51.90
22562;DHT22;11447;50.562;8.504;2022-08-25T00:21:24;23.50;51.70
22562;DHT22;11447;50.562;8.504;2022-08-25T00:23:51;23.50;51.70
22562;DHT22;11447;50.562;8.504;2022-08-25T00:26:20;23.40;52.30
22562;DHT22;11447;50.562;8.504;2022-08-25T00:28:47;23.40;51.80
22562;DHT22;11447;50.562;8.504;2022-08-25T00:31:14;23.40;51.90
22562;DHT22;11447;50.562;8.504;2022-08-25T00:33:42;23.30;51.90
22562;DHT22;11447;50.562;8.504;2022-08-25T00:36:09;23.30;52.40
22562;DHT22;11447;50.562;8.504;2022-08-25T00:38:38;23.20;52.80
22562;DHT22;11447;50.562;8.504;2022-08-25T00:41:05;23.10;53.80
22562;DHT22;11447;50.562;8.504;2022-08-25T00:43:41;23.10;53.90
22562;DHT22;11447;50.562;8.504;2022-08-25T00:46:14;23.10;54.20
22562;DHT22;11447;50.562;8.504;2022-08-25T00:48:44;23.10;54.30
22562;DHT22;11447;50.562;8.504;2022-08-25T00:51:13;23.10;54.30
22562;DHT22;11447;50.562;8.504;2022-08-25T00:53:44;23.10;54.50
22562;DHT22;11447;50.562;8.504;2022-08-25T00:56:11;23.10;54.80
22562;DHT22;11447;50.562;8.504;2022-08-25T00:58:38;23.00;55.70
22562;DHT22;11447;50.562;8.504;2022-08-25T01:01:05;23.00;55.50
22562;DHT22;11447;50.562;8.504;2022-08-25T01:03:34;22.90;55.20
22562;DHT22;11447;50.562;8.504;2022-08-25T01:06:02;22.90;55.40
22562;DHT22;11447;50.562;8.504;2022-08-25T01:08:29;22.90;55.60
22562;DHT22;11447;50.562;8.504;2022-08-25T01:11:01;22.80;55.70
22562;DHT22;11447;50.562;8.504;2022-08-25T01:13:40;22.90;55.70
22562;DHT22;11447;50.562;8.504;2022-08-25T01:16:08;22.80;55.90
22562;DHT22;11447;50.562;8.504;2022-08-25T01:18:42;22.80;55.90
22562;DHT22;11447;50.562;8.504;2022-08-25T01:21:09;22.80;56.00
22562;DHT22;11447;50.562;8.504;2022-08-25T01:23:38;22.70;56.00
22562;DHT22;11447;50.562;8.504;2022-08-25T01:26:07;22.70;56.20
22562;DHT22;11447;50.562;8.504;2022-08-25T01:28:34;22.50;56.10
22562;DHT22;11447;50.562;8.504;2022-08-25T01:31:03;22.40;56.30
22562;DHT22;11447;50.562;8.504;2022-08-25T01:33:49;22.40;56.40
22562;DHT22;11447;50.562;8.504;2022-08-25T01:36:17;22.40;56.40
22562;DHT22;11447;50.562;8.504;2022-08-25T01:38:44;22.40;56.70
22562;DHT22;11447;50.562;8.504;2022-08-25T01:41:15;22.40;56.50
22562;DHT22;11447;50.562;8.504;2022-08-25T01:43:42;22.30;56.60
22562;DHT22;11447;50.562;8.504;2022-08-25T01:46:11;22.30;56.80
22562;DHT22;11447;50.562;8.504;2022-08-25T01:48:38;22.30;56.90
22562;DHT22;11447;50.562;8.504;2022-08-25T01:51:05;22.30;57.10
22562;DHT22;11447;50.562;8.504;2022-08-25T01:53:31;22.30;57.20
22562;DHT22;11447;50.562;8.504;2022-08-25T01:56:05;22.20;57.40
22562;DHT22;11447;50.562;8.504;2022-08-25T01:58:38;22.20;57.60
22562;DHT22;11447;50.562;8.504;2022-08-25T02:01:08;22.10;57.60
22562;DHT22;11447;50.562;8.504;2022-08-25T02:03:39;22.10;57.70
22562;DHT22;11447;50.562;8.504;2022-08-25T02:06:10;22.10;57.90
22562;DHT22;11447;50.562;8.504;2022-08-25T02:08:37;22.10;57.90
22562;DHT22;11447;50.562;8.504;2022-08-25T02:11:07;22.00;58.40
22562;DHT22;11447;50.562;8.504;2022-08-25T02:13:37;22.00;58.70
22562;DHT22;11447;50.562;8.504;2022-08-25T02:16:04;22.00;58.70
22562;DHT22;11447;50.562;8.504;2022-08-25T02:18:33;22.00;58.50
22562;DHT22;11447;50.562;8.504;2022-08-25T02:21:00;21.90;58.50
22562;DHT22;11447;50.562;8.504;2022-08-25T02:23:27;21.90;58.90
22562;DHT22;11447;50.562;8.504;2022-08-25T02:25:53;21.80;59.00
22562;DHT22;11447;50.562;8.504;2022-08-25T02:28:25;21.80;58.90
22562;DHT22;11447;50.562;8.504;2022-08-25T02:30:51;21.80;58.70
22562;DHT22;11447;50.562;8.504;2022-08-25T02:33:24;21.70;58.50
22562;DHT22;11447;50.562;8.504;2022-08-25T02:35:50;21.70;58.60
22562;DHT22;11447;50.562;8.504;2022-08-25T02:38:17;21.60;59.00
22562;DHT22;11447;50.562;8.504;2022-08-25T02:40:44;21.60;59.20
22562;DHT22;11447;50.562;8.504;2022-08-25T02:43:10;21.50;59.40
22562;DHT22;11447;50.562;8.504;2022-08-25T02:45:37;21.50;59.60
22562;DHT22;11447;50.562;8.504;2022-08-25T02:48:04;21.50;59.70
22562;DHT22;11447;50.562;8.504;2022-08-25T02:50:33;21.50;59.60
22562;DHT22;11447;50.562;8.504;2022-08-25T02:53:02;21.40;59.60
22562;DHT22;11447;50.562;8.504;2022-08-25T02:55:29;21.40;59.80
22562;DHT22;11447;50.562;8.504;2022-08-25T02:58:00;21.30;59.80
22562;DHT22;11447;50.562;8.504;2022-08-25T03:00:26;21.40;60.00
22562;DHT22;11447;50.562;8.504;2022-08-25T03:02:55;21.30;59.80
22562;DHT22;11447;50.562;8.504;2022-08-25T03:05:22;21.30;59.90
22562;DHT22;11447;50.562;8.504;2022-08-25T03:07:51;21.30;60.00
22562;DHT22;11447;50.562;8.504;2022-08-25T03:10:19;21.20;60.10
22562;DHT22;11447;50.562;8.504;2022-08-25T03:12:46;21.10;59.90
22562;DHT22;11447;50.562;8.504;2022-08-25T03:15:13;21.10;60.00
22562;DHT22;11447;50.562;8.504;2022-08-25T03:17:46;21.10;60.30
22562;DHT22;11447;50.562;8.504;2022-08-25T03:20:16;21.00;60.80
22562;DHT22;11447;50.562;8.504;2022-08-25T03:22:43;21.00;61.00
22562;DHT22;11447;50.562;8.504;2022-08-25T03:25:10;20.90;61.30
22562;DHT22;11447;50.562;8.504;2022-08-25T03:28:06;20.90;61.30
22562;DHT22;11447;50.562;8.504;2022-08-25T03:30:36;20.80;61.40
22562;DHT22;11447;50.562;8.504;2022-08-25T03:33:03;20.70;61.70
22562;DHT22;11447;50.562;8.504;2022-08-25T03:35:29;20.70;62.20
22562;DHT22;11447;50.562;8.504;2022-08-25T03:37:57;20.60;62.40
22562;DHT22;11447;50.562;8.504;2022-08-25T03:40:26;20.60;63.00
22562;DHT22;11447;50.562;8.504;2022-08-25T03:42:55;20.50;63.00
22562;DHT22;11447;50.562;8.504;2022-08-25T03:45:22;20.50;63.00
22562;DHT22;11447;50.562;8.504;2022-08-25T03:47:50;20.40;63.10
22562;DHT22;11447;50.562;8.504;2022-08-25T03:50:20;20.40;63.40
22562;DHT22;11447;50.562;8.504;2022-08-25T03:52:54;20.40;63.70
22562;DHT22;11447;50.562;8.504;2022-08-25T03:55:22;20.40;63.80
22562;DHT22;11447;50.562;8.504;2022-08-25T03:57:50;20.40;63.60
22562;DHT22;11447;50.562;8.504;2022-08-25T04:00:17;20.40;63.60
22562;DHT22;11447;50.562;8.504;2022-08-25T04:02:43;20.40;63.80
22562;DHT22;11447;50.562;8.504;2022-08-25T04:05:13;20.40;64.10
22562;DHT22;11447;50.562;8.504;2022-08-25T04:07:41;20.30;64.40
22562;DHT22;11447;50.562;8.504;2022-08-25T04:10:08;20.30;64.80
22562;DHT22;11447;50.562;8.504;2022-08-25T04:12:38;20.30;65.40
22562;DHT22;11447;50.562;8.504;2022-08-25T04:15:07;20.20;65.70
22562;DHT22;11447;50.562;8.504;2022-08-25T04:17:37;20.20;65.90
22562;DHT22;11447;50.562;8.504;2022-08-25T04:20:06;20.20;65.90
22562;DHT22;11447;50.562;8.504;2022-08-25T04:22:36;20.20;65.70
22562;DHT22;11447;50.562;8.504;2022-08-25T04:25:04;20.20;66.00
22562;DHT22;11447;50.562;8.504;2022-08-25T04:27:30;20.20;66.00
22562;DHT22;11447;50.562;8.504;2022-08-25T04:29:57;20.20;65.80
22562;DHT22;11447;50.562;8.504;2022-08-25T04:32:24;20.10;65.20
22562;DHT22;11447;50.562;8.504;2022-08-25T04:34:50;20.00;65.00
22562;DHT22;11447;50.562;8.504;2022-08-25T04:37:17;19.90;65.60
22562;DHT22;11447;50.562;8.504;2022-08-25T04:39:46;19.80;65.70
22562;DHT22;11447;50.562;8.504;2022-08-25T04:42:13;19.90;65.50
22562;DHT22;11447;50.562;8.504;2022-08-25T04:44:40;20.00;65.20
22562;DHT22;11447;50.562;8.504;2022-08-25T04:47:07;20.00;64.90
22562;DHT22;11447;50.562;8.504;2022-08-25T04:49:36;20.00;64.90
22562;DHT22;11447;50.562;8.504;2022-08-25T04:52:05;19.90;65.10
22562;DHT22;11447;50.562;8.504;2022-08-25T04:54:39;19.90;65.20
22562;DHT22;11447;50.562;8.504;2022-08-25T04:57:06;19.90;65.90
22562;DHT22;11447;50.562;8.504;2022-08-25T04:59:35;19.90;68.10
22562;DHT22;11447;50.562;8.504;2022-08-25T05:02:04;19.90;67.80
22562;DHT22;11447;50.562;8.504;2022-08-25T05:04:34;19.90;67.90
22562;DHT22;11447;50.562;8.504;2022-08-25T05:07:02;19.90;67.30
22562;DHT22;11447;50.562;8.504;2022-08-25T05:09:28;20.00;67.50
22562;DHT22;11447;50.562;8.504;2022-08-25T05:11:58;19.90;67.10
22562;DHT22;11447;50.562;8.504;2022-08-25T05:14:25;19.90;66.70
22562;DHT22;11447;50.562;8.504;2022-08-25T05:16:57;19.90;66.70
22562;DHT22;11447;50.562;8.504;2022-08-25T05:19:24;19.80;66.90
22562;DHT22;11447;50.562;8.504;2022-08-25T05:21:51;19.80;67.30
22562;DHT22;11447;50.562;8.504;2022-08-25T05:24:23;19.80;67.60
22562;DHT22;11447;50.562;8.504;2022-08-25T05:26:50;19.80;67.60
22562;DHT22;11447;50.562;8.504;2022-08-25T05:29:17;19.80;67.50
22562;DHT22;11447;50.562;8.504;2022-08-25T05:31:46;19.90;67.40
22562;DHT22;11447;50.562;8.504;2022-08-25T05:34:16;19.80;67.50
22562;DHT22;11447;50.562;8.504;2022-08-25T05:36:44;19.80;68.10
22562;DHT22;11447;50.562;8.504;2022-08-25T05:39:11;19.80;68.30
22562;DHT22;11447;50.562;8.504;2022-08-25T05:41:40;19.80;68.10
22562;DHT22;11447;50.562;8.504;2022-08-25T05:44:06;19.90;67.90
22562;DHT22;11447;50.562;8.504;2022-08-25T05:46:35;19.90;68.90
22562;DHT22;11447;50.562;8.504;2022-08-25T05:49:02;19.90;67.90
22562;DHT22;11447;50.562;8.504;2022-08-25T05:51:29;19.90;67.80
22562;DHT22;11447;50.562;8.504;2022-08-25T05:53:58;19.90;68.00
22562;DHT22;11447;50.562;8.504;2022-08-25T05:56:25;20.00;67.90
22562;DHT22;11447;50.562;8.504;2022-08-25T05:58:52;20.00;67.80
22562;DHT22;11447;50.562;8.504;2022-08-25T06:01:21;20.00;69.00
22562;DHT22;11447;50.562;8.504;2022-08-25T06:04:09;20.00;68.30
22562;DHT22;11447;50.562;8.504;2022-08-25T06:06:38;20.00;68.30
22562;DHT22;11447;50.562;8.504;2022-08-25T06:09:07;20.00;68.20
22562;DHT22;11447;50.562;8.504;2022-08-25T06:11:36;20.10;68.60
22562;DHT22;11447;50.562;8.504;2022-08-25T06:14:02;20.10;68.80
22562;DHT22;11447;50.562;8.504;2022-08-25T06:16:32;20.10;68.70
22562;DHT22;11447;50.562;8.504;2022-08-25T06:18:59;20.20;68.60
22562;DHT22;11447;50.562;8.504;2022-08-25T06:21:26;20.30;67.90
22562;DHT22;11447;50.562;8.504;2022-08-25T06:23:53;20.40;67.60
22562;DHT22;11447;50.562;8.504;2022-08-25T06:26:19;20.50;67.10
22562;DHT22;11447;50.562;8.504;2022-08-25T06:28:47;20.70;66.90
22562;DHT22;11447;50.562;8.504;2022-08-25T06:31:14;20.80;67.00
22562;DHT22;11447;50.562;8.504;2022-08-25T06:33:43;20.90;66.60
22562;DHT22;11447;50.562;8.504;2022-08-25T06:36:10;21.00;65.80
22562;DHT22;11447;50.562;8.504;2022-08-25T06:38:37;21.00;65.90
22562;DHT22;11447;50.562;8.504;2022-08-25T06:41:07;21.00;66.60
22562;DHT22;11447;50.562;8.504;2022-08-25T06:43:34;21.20;66.40
22562;DHT22;11447;50.562;8.504;2022-08-25T06:46:09;22.50;64.40
22562;DHT22;11447;50.562;8.504;2022-08-25T06:48:36;24.50;59.20
22562;DHT22;11447;50.562;8.504;2022-08-25T06:51:06;26.30;54.50
22562;DHT22;11447;50.562;8.504;2022-08-25T06:53:35;27.60;51.80
22562;DHT22;11447;50.562;8.504;2022-08-25T06:56:04;28.50;50.00
22562;DHT22;11447;50.562;8.504;2022-08-25T06:58:32;29.30;48.00
22562;DHT22;11447;50.562;8.504;2022-08-25T07:01:08;30.00;46.30
22562;DHT22;11447;50.562;8.504;2022-08-25T07:03:41;30.60;45.00
22562;DHT22;11447;50.562;8.504;2022-08-25T07:06:08;31.10;44.00
22562;DHT22;11447;50.562;8.504;2022-08-25T07:08:34;31.70;43.40
22562;DHT22;11447;50.562;8.504;2022-08-25T07:11:06;32.20;42.90
22562;DHT22;11447;50.562;8.504;2022-08-25T07:13:42;32.80;41.80
22562;DHT22;11447;50.562;8.504;2022-08-25T07:16:09;33.30;40.80
22562;DHT22;11447;50.562;8.504;2022-08-25T07:18:37;33.50;39.60
22562;DHT22;11447;50.562;8.504;2022-08-25T07:21:03;33.60;39.50
22562;DHT22;11447;50.562;8.504;2022-08-25T07:23:34;33.20;40.10
22562;DHT22;11447;50.562;8.504;2022-08-25T07:28:47;33.40;40.00
22562;DHT22;11447;50.562;8.504;2022-08-25T07:31:15;33.00;41.00
22562;DHT22;11447;50.562;8.504;2022-08-25T07:33:43;33.10;41.00
22562;DHT22;11447;50.562;8.504;2022-08-25T07:36:32;33.20;40.50
22562;DHT22;11447;50.562;8.504;2022-08-25T07:38:59;32.70;41.90
22562;DHT22;11447;50.562;8.504;2022-08-25T07:41:29;32.60;42.20
22562;DHT22;11447;50.562;8.504;2022-08-25T07:43:58;32.30;42.30
22562;DHT22;11447;50.562;8.504;2022-08-25T07:46:25;32.10;43.10
22562;DHT22;11447;50.562;8.504;2022-08-25T07:48:54;31.60;43.10
22562;DHT22;11447;50.562;8.504;2022-08-25T07:51:21;31.00;44.20
22562;DHT22;11447;50.562;8.504;2022-08-25T07:53:47;30.60;44.90
22562;DHT22;11447;50.562;8.504;2022-08-25T07:56:15;30.50;45.10
22562;DHT22;11447;50.562;8.504;2022-08-25T07:58:45;30.30;45.60
22562;DHT22;11447;50.562;8.504;2022-08-25T08:01:15;29.90;46.00
22562;DHT22;11447;50.562;8.504;2022-08-25T08:03:44;29.60;46.80
22562;DHT22;11447;50.562;8.504;2022-08-25T08:06:19;29.50;47.20
22562;DHT22;11447;50.562;8.504;2022-08-25T08:08:47;29.50;47.30
22562;DHT22;11447;50.562;8.504;2022-08-25T08:13:45;29.00;48.40
22562;DHT22;11447;50.562;8.504;2022-08-25T08:16:19;28.90;48.80
22562;DHT22;11447;50.562;8.504;2022-08-25T08:18:45;28.90;48.90
22562;DHT22;11447;50.562;8.504;2022-08-25T08:21:17;28.90;48.80
22562;DHT22;11447;50.562;8.504;2022-08-25T08:23:49;29.00;48.90
22562;DHT22;11447;50.562;8.504;2022-08-25T08:26:24;28.90;48.90
22562;DHT22;11447;50.562;8.504;2022-08-25T08:29:11;28.80;49.20
22562;DHT22;11447;50.562;8.504;2022-08-25T08:31:38;28.90;49.40
22562;DHT22;11447;50.562;8.504;2022-08-25T08:34:14;29.00;49.10
22562;DHT22;11447;50.562;8.504;2022-08-25T08:36:40;29.00;49.20
22562;DHT22;11447;50.562;8.504;2022-08-25T08:39:10;29.00;49.30
22562;DHT22;11447;50.562;8.504;2022-08-25T08:44:53;28.90;49.10
22562;DHT22;11447;50.562;8.504;2022-08-25T08:53:31;28.70;49.80
22562;DHT22;11447;50.562;8.504;2022-08-25T08:55:29;28.50;50.30
22562;DHT22;11447;50.562;8.504;2022-08-25T08:57:57;28.60;50.20
22562;DHT22;11447;50.562;8.504;2022-08-25T09:00:25;28.60;50.00
22562;DHT22;11447;50.562;8.504;2022-08-25T09:03:04;28.60;50.20
22562;DHT22;11447;50.562;8.504;2022-08-25T09:05:36;28.80;50.10
22562;DHT22;11447;50.562;8.504;2022-08-25T09:08:13;28.70;49.80
22562;DHT22;11447;50.562;8.504;2022-08-25T09:10:53;28.80;49.80
22562;DHT22;11447;50.562;8.504;2022-08-25T09:15:58;28.70;49.40
22562;DHT22;11447;50.562;8.504;2022-08-25T09:24:59;28.60;49.90
22562;DHT22;11447;50.562;8.504;2022-08-25T09:27:50;28.60;49.90
22562;DHT22;11447;50.562;8.504;2022-08-25T09:30:20;28.70;50.00
22562;DHT22;11447;50.562;8.504;2022-08-25T09:32:51;28.80;49.60
22562;DHT22;11447;50.562;8.504;2022-08-25T09:35:21;28.80;49.30
22562;DHT22;11447;50.562;8.504;2022-08-25T09:40:24;28.80;49.60
22562;DHT22;11447;50.562;8.504;2022-08-25T09:42:54;28.80;49.00
22562;DHT22;11447;50.562;8.504;2022-08-25T09:45:35;28.80;49.10
22562;DHT22;11447;50.562;8.504;2022-08-25T09:48:04;28.80;49.20
22562;DHT22;11447;50.562;8.504;2022-08-25T09:50:48;28.90;49.00
22562;DHT22;11447;50.562;8.504;2022-08-25T09:53:18;28.90;49.00
22562;DHT22;11447;50.562;8.504;2022-08-25T09:55:51;29.00;48.90
22562;DHT22;11447;50.562;8.504;2022-08-25T09:58:28;29.00;48.90
22562;DHT22;11447;50.562;8.504;2022-08-25T10:01:12;28.90;49.10
22562;DHT22;11447;50.562;8.504;2022-08-25T10:03:52;28.90;48.90
22562;DHT22;11447;50.562;8.504;2022-08-25T10:06:19;29.00;48.90
22562;DHT22;11447;50.562;8.504;2022-08-25T10:11:16;29.00;48.90
22562;DHT22;11447;50.562;8.504;2022-08-25T10:16:39;29.00;48.90
22562;DHT22;11447;50.562;8.504;2022-08-25T10:19:26;29.20;48.90
22562;DHT22;11447;50.562;8.504;2022-08-25T10:24:31;29.00;48.60
22562;DHT22;11447;50.562;8.504;2022-08-25T10:27:04;29.00;49.00
22562;DHT22;11447;50.562;8.504;2022-08-25T10:29:46;29.00;48.80
22562;DHT22;11447;50.562;8.504;2022-08-25T10:32:38;29.00;48.70
22562;DHT22;11447;50.562;8.504;2022-08-25T10:35:11;29.00;48.70
22562;DHT22;11447;50.562;8.504;2022-08-25T10:43:39;29.40;47.90
22562;DHT22;11447;50.562;8.504;2022-08-25T10:45:40;29.40;47.60
22562;DHT22;11447;50.562;8.504;2022-08-25T10:55:51;29.30;47.80
22562;DHT22;11447;50.562;8.504;2022-08-25T10:58:42;29.40;47.70
22562;DHT22;11447;50.562;8.504;2022-08-25T11:01:23;29.40;47.60
22562;DHT22;11447;50.562;8.504;2022-08-25T11:04:09;29.40;47.40
22562;DHT22;11447;50.562;8.504;2022-08-25T11:06:39;29.40;47.40
22562;DHT22;11447;50.562;8.504;2022-08-25T11:09:11;29.40;47.00
22562;DHT22;11447;50.562;8.504;2022-08-25T11:24:51;29.90;46.00
22562;DHT22;11447;50.562;8.504;2022-08-25T11:27:22;29.90;45.90
22562;DHT22;11447;50.562;8.504;2022-08-25T11:30:09;30.00;46.20
22562;DHT22;11447;50.562;8.504;2022-08-25T11:32:36;29.90;46.50
22562;DHT22;11447;50.562;8.504;2022-08-25T11:35:07;30.00;47.00
22562;DHT22;11447;50.562;8.504;2022-08-25T11:37:41;29.90;46.40
22562;DHT22;11447;50.562;8.504;2022-08-25T11:40:18;29.80;46.40
22562;DHT22;11447;50.562;8.504;2022-08-25T11:45:23;29.60;46.70
22562;DHT22;11447;50.562;8.504;2022-08-25T11:48:01;29.60;46.50
22562;DHT22;11447;50.562;8.504;2022-08-25T11:50:34;29.60;46.50
22562;DHT22;11447;50.562;8.504;2022-08-25T11:53:15;29.70;46.20
22562;DHT22;11447;50.562;8.504;2022-08-25T11:55:57;29.70;46.00
22562;DHT22;11447;50.562;8.504;2022-08-25T11:58:29;29.80;46.00
22562;DHT22;11447;50.562;8.504;2022-08-25T12:00:57;29.90;45.50
22562;DHT22;11447;50.562;8.504;2022-08-25T12:11:49;30.30;44.90
22562;DHT22;11447;50.562;8.504;2022-08-25T12:21:55;30.50;44.50
22562;DHT22;11447;50.562;8.504;2022-08-25T12:26:58;30.60;44.50
22562;DHT22;11447;50.562;8.504;2022-08-25T12:29:34;30.70;43.80
22562;DHT22;11447;50.562;8.504;2022-08-25T12:32:13;30.90;43.60
22562;DHT22;11447;50.562;8.504;2022-08-25T12:37:24;30.90;43.30
22562;DHT22;11447;50.562;8.504;2022-08-25T12:39:58;31.00;43.10
22562;DHT22;11447;50.562;8.504;2022-08-25T12:47:46;31.20;42.80
22562;DHT22;11447;50.562;8.504;2022-08-25T12:52:51;31.20;42.00
22562;DHT22;11447;50.562;8.504;2022-08-25T12:55:21;31.20;41.80
22562;DHT22;11447;50.562;8.504;2022-08-25T12:57:56;31.20;41.90
22562;DHT22;11447;50.562;8.504;2022-08-25T13:16:05;31.00;41.60
22562;DHT22;11447;50.562;8.504;2022-08-25T13:18:35;30.90;42.00
22562;DHT22;11447;50.562;8.504;2022-08-25T13:23:36;31.00;42.20
22562;DHT22;11447;50.562;8.504;2022-08-25T13:26:03;31.10;42.10
22562;DHT22;11447;50.562;8.504;2022-08-25T13:28:35;31.10;42.20
22562;DHT22;11447;50.562;8.504;2022-08-25T13:31:16;31.10;42.10
22562;DHT22;11447;50.562;8.504;2022-08-25T13:33:54;31.10;41.60
22562;DHT22;11447;50.562;8.504;2022-08-25T13:36:22;31.10;41.40
22562;DHT22;11447;50.562;8.504;2022-08-25T13:39:23;31.10;41.70
22562;DHT22;11447;50.562;8.504;2022-08-25T13:42:14;31.00;41.90
22562;DHT22;11447;50.562;8.504;2022-08-25T13:44:42;31.00;42.00
22562;DHT22;11447;50.562;8.504;2022-08-25T13:47:32;30.90;42.20
22562;DHT22;11447;50.562;8.504;2022-08-25T13:53:00;30.90;42.30
22562;DHT22;11447;50.562;8.504;2022-08-25T13:55:38;31.00;42.10
22562;DHT22;11447;50.562;8.504;2022-08-25T13:58:24;31.00;42.10
22562;DHT22;11447;50.562;8.504;2022-08-25T14:01:16;31.00;41.80
22562;DHT22;11447;50.562;8.504;2022-08-25T14:09:45;30.80;41.80
22562;DHT22;11447;50.562;8.504;2022-08-25T14:15:00;30.60;42.40
22562;DHT22;11447;50.562;8.504;2022-08-25T14:17:27;30.40;42.60
22562;DHT22;11447;50.562;8.504;2022-08-25T14:20:13;30.30;42.70
22562;DHT22;11447;50.562;8.504;2022-08-25T14:22:41;30.30;42.80
22562;DHT22;11447;50.562;8.504;2022-08-25T14:25:10;30.30;42.70
22562;DHT22;11447;50.562;8.504;2022-08-25T14:27:42;30.30;43.00
22562;DHT22;11447;50.562;8.504;2022-08-25T14:30:30;30.30;43.00
22562;DHT22;11447;50.562;8.504;2022-08-25T14:32:59;30.30;42.90
22562;DHT22;11447;50.562;8.504;2022-08-25T14:35:27;30.30;42.70
22562;DHT22;11447;50.562;8.504;2022-08-25T14:37:56;30.20;42.60
22562;DHT22;11447;50.562;8.504;2022-08-25T14:40:23;30.10;42.80
22562;DHT22;11447;50.562;8.504;2022-08-25T14:42:50;30.10;43.10
22562;DHT22;11447;50.562;8.504;2022-08-25T14:45:17;30.10;43.20
22562;DHT22;11447;50.562;8.504;2022-08-25T14:47:44;30.00;43.10
22562;DHT22;11447;50.562;8.504;2022-08-25T14:50:15;29.90;43.40
22562;DHT22;11447;50.562;8.504;2022-08-25T14:52:46;29.90;43.70
22562;DHT22;11447;50.562;8.504;2022-08-25T14:55:17;29.90;43.40
22562;DHT22;11447;50.562;8.504;2022-08-25T14:57:57;30.00;43.30
22562;DHT22;11447;50.562;8.504;2022-08-25T15:00:24;30.10;43.30
22562;DHT22;11447;50.562;8.504;2022-08-25T15:02:55;30.10;43.10
22562;DHT22;11447;50.562;8.504;2022-08-25T15:05:23;30.30;43.10
22562;DHT22;11447;50.562;8.504;2022-08-25T15:07:55;30.30;43.10
22562;DHT22;11447;50.562;8.504;2022-08-25T15:10:43;30.30;42.70
22562;DHT22;11447;50.562;8.504;2022-08-25T15:13:10;30.40;42.90
22562;DHT22;11447;50.562;8.504;2022-08-25T15:15:38;30.40;41.80
22562;DHT22;11447;50.562;8.504;2022-08-25T15:18:19;30.40;41.70
22562;DHT22;11447;50.562;8.504;2022-08-25T15:20:46;30.50;41.10
22562;DHT22;11447;50.562;8.504;2022-08-25T15:23:18;30.50;40.50
22562;DHT22;11447;50.562;8.504;2022-08-25T15:25:46;30.40;40.90
22562;DHT22;11447;50.562;8.504;2022-08-25T15:28:18;30.40;41.10
22562;DHT22;11447;50.562;8.504;2022-08-25T15:30:48;30.40;41.50
22562;DHT22;11447;50.562;8.504;2022-08-25T15:33:17;30.40;41.40
22562;DHT22;11447;50.562;8.504;2022-08-25T15:35:48;30.30;40.80
22562;DHT22;11447;50.562;8.504;2022-08-25T15:38:17;30.30;41.00
22562;DHT22;11447;50.562;8.504;2022-08-25T15:40:44;30.30;41.00
22562;DHT22;11447;50.562;8.504;2022-08-25T15:43:11;30.30;41.10
22562;DHT22;11447;50.562;8.504;2022-08-25T15:45:38;30.30;42.00
22562;DHT22;11447;50.562;8.504;2022-08-25T15:48:05;30.40;41.10
22562;DHT22;11447;50.562;8.504;2022-08-25T15:50:35;30.30;41.00
22562;DHT22;11447;50.562;8.504;2022-08-25T15:53:04;30.40;41.40
22562;DHT22;11447;50.562;8.504;2022-08-25T15:55:37;30.40;41.90
22562;DHT22;11447;50.562;8.504;2022-08-25T15:58:08;30.40;41.30
22562;DHT22;11447;50.562;8.504;2022-08-25T16:00:35;30.50;40.90
22562;DHT22;11447;50.562;8.504;2022-08-25T16:03:05;30.60;40.80
22562;DHT22;11447;50.562;8.504;2022-08-25T16:05:34;30.60;40.60
22562;DHT22;11447;50.562;8.504;2022-08-25T16:08:03;30.50;41.40
22562;DHT22;11447;50.562;8.504;2022-08-25T16:10:36;30.50;41.10
22562;DHT22;11447;50.562;8.504;2022-08-25T16:13:04;30.50;40.80
22562;DHT22;11447;50.562;8.504;2022-08-25T16:15:31;30.50;41.20
22562;DHT22;11447;50.562;8.504;2022-08-25T16:18:01;30.50;40.80
22562;DHT22;11447;50.562;8.504;2022-08-25T16:20:31;30.50;40.70
22562;DHT22;11447;50.562;8.504;2022-08-25T16:22:58;30.50;40.30
22562;DHT22;11447;50.562;8.504;2022-08-25T16:25:29;30.40;40.60
22562;DHT22;11447;50.562;8.504;2022-08-25T16:27:58;30.40;40.90
22562;DHT22;11447;50.562;8.504;2022-08-25T16:30:25;30.40;40.70
22562;DHT22;11447;50.562;8.504;2022-08-25T16:32:53;30.40;40.70
22562;DHT22;11447;50.562;8.504;2022-08-25T16:35:20;30.40;40.60
22562;DHT22;11447;50.562;8.504;2022-08-25T16:37:49;30.40;40.70
22562;DHT22;11447;50.562;8.504;2022-08-25T16:40:16;30.30;40.80
22562;DHT22;11447;50.562;8.504;2022-08-25T16:42:46;30.30;41.00
22562;DHT22;11447;50.562;8.504;2022-08-25T16:45:13;30.30;40.90
22562;DHT22;11447;50.562;8.504;2022-08-25T16:47:40;30.30;40.90
22562;DHT22;11447;50.562;8.504;2022-08-25T16:50:09;30.30;40.80
22562;DHT22;11447;50.562;8.504;2022-08-25T16:52:38;30.30;40.80
22562;DHT22;11447;50.562;8.504;2022-08-25T16:55:25;30.20;40.40
22562;DHT22;11447;50.562;8.504;2022-08-25T16:57:54;30.10;40.70
22562;DHT22;11447;50.562;8.504;2022-08-25T17:00:23;30.10;40.70
22562;DHT22;11447;50.562;8.504;2022-08-25T17:02:55;30.10;40.90
22562;DHT22;11447;50.562;8.504;2022-08-25T17:05:27;30.00;40.70
22562;DHT22;11447;50.562;8.504;2022-08-25T17:08:00;30.00;40.70
22562;DHT22;11447;50.562;8.504;2022-08-25T17:10:47;29.90;41.00
22562;DHT22;11447;50.562;8.504;2022-08-25T17:13:14;29.90;41.00
22562;DHT22;11447;50.562;8.504;2022-08-25T17:15:41;29.90;41.50
22562;DHT22;11447;50.562;8.504;2022-08-25T17:18:08;29.90;41.20
22562;DHT22;11447;50.562;8.504;2022-08-25T17:20:40;29.90;41.20
22562;DHT22;11447;50.562;8.504;2022-08-25T17:23:08;29.90;41.40
22562;DHT22;11447;50.562;8.504;2022-08-25T17:25:38;29.80;41.20
22562;DHT22;11447;50.562;8.504;2022-08-25T17:28:06;29.80;41.50
22562;DHT22;11447;50.562;8.504;2022-08-25T17:30:40;29.80;41.00
22562;DHT22;11447;50.562;8.504;2022-08-25T17:33:07;29.80;41.50
22562;DHT22;11447;50.562;8.504;2022-08-25T17:35:37;29.80;41.60
22562;DHT22;11447;50.562;8.504;2022-08-25T17:38:06;29.70;41.40
22562;DHT22;11447;50.562;8.504;2022-08-25T17:40:34;29.70;41.60
22562;DHT22;11447;50.562;8.504;2022-08-25T17:43:01;29.70;41.70
22562;DHT22;11447;50.562;8.504;2022-08-25T17:45:28;29.60;42.10
22562;DHT22;11447;50.562;8.504;2022-08-25T17:47:54;29.50;42.30
22562;DHT22;11447;50.562;8.504;2022-08-25T17:50:24;29.50;42.10
22562;DHT22;11447;50.562;8.504;2022-08-25T17:52:54;29.50;42.20